Time;durP1;ratioP1;P1;durP2;ratioP2;P2;SDS_P1;SDS_P2;PMS_P1;PMS_P2;Temp;Humidity;BMP_temperature;BMP_pressure;BME280_temperature;BME280_humidity;BME280_pressure;Samples;Min_cycle;Max_cycle;Signal;HPM_P1;HPM_P2
2021/06/19 00:00:32;;;;;;;17.45;11.18;;;;;;;20.46;100.00;100968.28;4844979;29;20045;-78
2021/06/19 00:03:19;;;;;;;15.10;10.70;;;;;;;20.22;100.00;100965.16;4844392;29;20022;-79
2021/06/19 00:06:05;;;;;;;12.90;10.05;;;;;;;20.42;100.00;100966.72;4844595;29;20531;-78
2021/06/19 00:08:51;;;;;;;17.65;10.52;;;;;;;20.54;100.00;100961.59;4844367;29;20348;-78
2021/06/19 00:11:37;;;;;;;14.85;10.00;;;;;;;19.97;100.00;100964.66;4844342;29;20065;-78
2021/06/19 00:14:23;;;;;;;13.90;11.02;;;;;;;20.05;100.00;100969.59;4843999;29;20376;-78
2021/06/19 00:17:08;;;;;;;15.35;10.60;;;;;;;19.99;100.00;100964.56;4844910;29;20081;-78
2021/06/19 00:19:54;;;;;;;17.90;13.07;;;;;;;19.82;100.00;100968.13;4844469;29;20480;-78
2021/06/19 00:22:41;;;;;;;34.42;24.67;;;;;;;19.79;100.00;100965.63;4831771;29;20054;-78
2021/06/19 00:25:28;;;;;;;39.03;26.50;;;;;;;20.29;100.00;100960.34;4844018;29;20030;-78
2021/06/19 00:28:14;;;;;;;39.78;26.42;;;;;;;19.91;100.00;100961.44;4844122;29;20361;-78
2021/06/19 00:31:00;;;;;;;25.80;19.48;;;;;;;19.95;100.00;100960.34;4844426;29;20372;-78
2021/06/19 00:33:46;;;;;;;20.00;13.02;;;;;;;20.28;100.00;100963.94;4844626;29;20029;-78
2021/06/19 00:36:31;;;;;;;16.30;11.50;;;;;;;20.30;100.00;100962.94;4844751;29;20052;-79
2021/06/19 00:39:17;;;;;;;16.13;11.63;;;;;;;19.97;100.00;100967.31;4844085;29;20101;-78
2021/06/19 00:42:04;;;;;;;15.63;11.38;;;;;;;20.04;100.00;100971.38;4843831;29;20034;-78
2021/06/19 00:44:49;;;;;;;13.98;10.40;;;;;;;19.84;100.00;100966.22;4843776;29;20064;-78
2021/06/19 00:47:39;;;;;;;16.17;11.45;;;;;;;19.75;100.00;100972.03;4844172;29;20539;-78
2021/06/19 00:50:26;;;;;;;13.90;11.05;;;;;;;20.01;100.00;100976.84;4843750;29;20129;-79
2021/06/19 00:53:12;;;;;;;20.55;14.00;;;;;;;19.89;100.00;100972.16;4844786;29;20049;-78
2021/06/19 00:56:03;;;;;;;14.52;11.68;;;;;;;19.94;100.00;100964.84;4843415;29;20098;-78
2021/06/19 00:58:48;;;;;;;21.23;12.70;;;;;;;19.80;100.00;100967.31;4843791;29;20025;-77
2021/06/19 01:01:35;;;;;;;18.13;11.85;;;;;;;19.92;100.00;100966.69;4843792;29;20046;-78
2021/06/19 01:04:20;;;;;;;17.42;11.95;;;;;;;20.02;100.00;100967.09;4843506;29;20042;-78
2021/06/19 01:07:07;;;;;;;13.25;11.52;;;;;;;20.05;100.00;100951.81;4844302;29;20104;-78
2021/06/19 01:09:52;;;;;;;17.83;12.05;;;;;;;20.14;100.00;100950.50;4843398;29;20021;-78
2021/06/19 01:12:43;;;;;;;16.92;12.90;;;;;;;20.26;100.00;100950.72;4843589;29;20026;-78
2021/06/19 01:15:29;;;;;;;16.05;12.77;;;;;;;20.06;100.00;100942.91;4843426;29;20102;-78
2021/06/19 01:18:15;;;;;;;19.10;12.55;;;;;;;20.14;100.00;100945.19;4843370;29;20034;-78
2021/06/19 01:21:00;;;;;;;20.50;12.30;;;;;;;20.34;100.00;100943.19;4843631;29;20026;-78
2021/06/19 01:23:47;;;;;;;18.85;13.40;;;;;;;20.31;100.00;100937.16;4843323;29;20041;-78
2021/06/19 01:26:35;;;;;;;15.90;10.65;;;;;;;20.27;100.00;100944.47;4843336;29;20026;-78
2021/06/19 01:29:21;;;;;;;17.63;11.73;;;;;;;19.97;100.00;100945.19;4843435;29;20061;-78
2021/06/19 01:32:07;;;;;;;20.95;11.98;;;;;;;20.05;100.00;100951.81;4843987;29;20121;-78
2021/06/19 01:34:53;;;;;;;15.32;11.45;;;;;;;20.22;100.00;100954.50;4842841;29;20371;-79
2021/06/19 01:37:44;;;;;;;16.33;11.85;;;;;;;20.17;100.00;100948.53;4843111;29;20041;-79
2021/06/19 01:40:31;;;;;;;18.02;12.27;;;;;;;20.24;100.00;100941.97;4843453;29;20037;-79
2021/06/19 01:43:17;;;;;;;19.73;13.07;;;;;;;20.15;100.00;100947.78;4843028;29;20093;-78
2021/06/19 01:46:02;;;;;;;18.00;13.13;;;;;;;20.16;100.00;100945.94;4842730;29;20113;-78
2021/06/19 01:48:48;;;;;;;19.90;12.82;;;;;;;20.07;100.00;100943.75;4843668;29;20030;-78
2021/06/19 01:51:35;;;;;;;16.40;12.90;;;;;;;20.09;100.00;100945.41;4843476;29;20110;-78
2021/06/19 01:54:20;;;;;;;15.68;13.23;;;;;;;20.26;100.00;100944.53;4843031;29;20113;-78
2021/06/19 01:57:07;;;;;;;14.73;11.35;;;;;;;19.96;100.00;100935.47;4842700;29;20438;-78
2021/06/19 02:00:10;;;;;;;21.15;14.30;;;;;;;20.01;100.00;100950.25;4843217;29;20126;-78
2021/06/19 02:02:56;;;;;;;17.33;11.68;;;;;;;19.79;100.00;100947.00;4842238;29;20428;-78
2021/06/19 02:05:41;;;;;;;16.00;11.73;;;;;;;19.73;100.00;100957.09;4842760;29;20464;-78
2021/06/19 02:08:27;;;;;;;19.20;12.93;;;;;;;19.36;100.00;100955.41;4843072;29;20030;-78
2021/06/19 02:11:13;;;;;;;18.67;10.77;;;;;;;19.47;100.00;100962.84;4842578;29;20439;-78
2021/06/19 02:14:00;;;;;;;17.63;10.57;;;;;;;19.22;100.00;100964.03;4842351;29;20475;-78
2021/06/19 02:16:46;;;;;;;14.95;10.20;;;;;;;19.05;100.00;100965.81;4842933;29;20030;-78
2021/06/19 02:19:32;;;;;;;12.48;10.38;;;;;;;19.29;100.00;100969.09;4842839;29;20030;-78
2021/06/19 02:22:17;;;;;;;12.40;8.95;;;;;;;19.12;100.00;100970.72;4842482;29;20026;-77
2021/06/19 02:25:06;;;;;;;13.07;9.82;;;;;;;19.27;100.00;100974.47;4855646;29;20034;-78
2021/06/19 02:27:58;;;;;;;12.50;9.93;;;;;;;19.27;100.00;100982.44;4853425;29;20065;-77
2021/06/19 02:30:46;;;;;;;14.70;10.68;;;;;;;19.24;100.00;100973.78;4849425;29;20060;-78
2021/06/19 02:33:32;;;;;;;12.20;8.60;;;;;;;18.91;100.00;100973.56;4844410;29;20030;-78
2021/06/19 02:36:17;;;;;;;13.38;10.20;;;;;;;18.94;100.00;100984.03;4844274;29;20038;-78
2021/06/19 02:39:04;;;;;;;10.48;9.02;;;;;;;18.96;100.00;100987.47;4842918;29;20093;-78
2021/06/19 02:41:49;;;;;;;8.80;7.90;;;;;;;19.15;100.00;100983.00;4844362;29;20073;-78
2021/06/19 02:44:35;;;;;;;12.07;8.82;;;;;;;19.46;100.00;100979.75;4843495;29;20445;-78
2021/06/19 02:47:21;;;;;;;10.23;8.07;;;;;;;19.44;100.00;100976.31;4845539;29;20180;-79
2021/06/19 02:50:08;;;;;;;9.80;8.27;;;;;;;19.22;100.00;100979.97;4846929;29;20471;-79
2021/06/19 02:52:55;;;;;;;11.85;9.27;;;;;;;19.34;100.00;100978.56;4846690;29;20042;-78
2021/06/19 02:55:42;;;;;;;8.15;7.35;;;;;;;19.06;100.00;100983.44;4846597;29;20094;-78
2021/06/19 02:58:28;;;;;;;11.68;9.68;;;;;;;19.35;100.00;100985.59;4847208;29;20041;-78
2021/06/19 03:01:14;;;;;;;9.85;8.65;;;;;;;19.50;100.00;100984.84;4846766;29;20066;-78
2021/06/19 03:03:59;;;;;;;8.82;7.78;;;;;;;19.54;100.00;100983.75;4846365;29;20372;-77
2021/06/19 03:06:45;;;;;;;10.35;9.27;;;;;;;19.73;100.00;100981.88;4847108;29;20452;-78
2021/06/19 03:09:31;;;;;;;12.48;9.75;;;;;;;19.77;100.00;100980.78;4846184;29;20026;-78
2021/06/19 03:12:17;;;;;;;9.85;8.38;;;;;;;19.46;100.00;100975.28;4846472;29;20026;-78
2021/06/19 03:15:04;;;;;;;8.70;7.50;;;;;;;19.51;100.00;100981.25;4846192;29;20085;-77
2021/06/19 03:17:51;;;;;;;8.20;7.35;;;;;;;19.36;100.00;100976.66;4846366;29;20034;-77
2021/06/19 03:20:36;;;;;;;10.07;8.70;;;;;;;19.54;100.00;100981.09;4846238;29;20025;-78
2021/06/19 03:23:22;;;;;;;12.07;8.80;;;;;;;19.47;100.00;100978.78;4846427;29;20384;-78
2021/06/19 03:26:08;;;;;;;11.40;8.85;;;;;;;19.51;100.00;100978.56;4846245;29;20073;-78
2021/06/19 03:28:54;;;;;;;9.65;7.57;;;;;;;19.66;100.00;100985.78;4845166;29;20033;-78
2021/06/19 03:31:39;;;;;;;9.45;8.25;;;;;;;19.77;100.00;100985.25;4845885;29;20029;-77
2021/06/19 03:34:25;;;;;;;9.68;7.07;;;;;;;19.65;100.00;100978.72;4846354;29;20463;-77
2021/06/19 03:37:11;;;;;;;9.30;6.95;;;;;;;19.80;100.00;100983.28;4846578;29;20034;-78
2021/06/19 03:39:57;;;;;;;10.18;6.95;;;;;;;19.82;100.00;100984.06;4845391;29;20482;-78
2021/06/19 03:42:44;;;;;;;9.20;6.95;;;;;;;19.75;100.00;100980.00;4845997;29;20116;-77
2021/06/19 03:45:34;;;;;;;8.35;6.72;;;;;;;20.03;100.00;100982.97;4844920;29;20098;-78
2021/06/19 03:48:20;;;;;;;9.18;7.13;;;;;;;20.01;100.00;100981.34;4845961;29;20040;-78
2021/06/19 03:51:06;;;;;;;7.90;5.95;;;;;;;20.25;100.00;100980.91;4845820;29;20046;-78
2021/06/19 03:53:51;;;;;;;6.97;5.82;;;;;;;20.03;100.00;100969.66;4845897;29;20117;-78
2021/06/19 03:56:37;;;;;;;7.18;5.47;;;;;;;20.05;100.00;100973.09;4845212;29;20036;-77
2021/06/19 03:59:23;;;;;;;6.68;5.40;;;;;;;20.25;100.00;100964.94;4845889;29;20125;-78
2021/06/19 04:02:09;;;;;;;6.25;4.95;;;;;;;20.10;100.00;100963.13;4844769;29;20357;-78
2021/06/19 04:04:55;;;;;;;4.55;4.15;;;;;;;20.46;100.00;100954.97;4845620;29;20026;-78
2021/06/19 04:07:41;;;;;;;5.00;4.50;;;;;;;20.40;100.00;100955.28;4845740;29;20048;-79
2021/06/19 04:10:27;;;;;;;5.70;4.45;;;;;;;20.17;100.00;100956.53;4845714;29;20117;-78
2021/06/19 04:13:13;;;;;;;4.35;3.95;;;;;;;20.42;100.00;100956.09;4845383;29;20106;-78
2021/06/19 04:15:59;;;;;;;4.15;3.75;;;;;;;20.35;100.00;100960.88;4845126;29;20096;-78
2021/06/19 04:18:44;;;;;;;4.00;3.60;;;;;;;20.05;100.00;100958.94;4845217;29;20030;-79
2021/06/19 04:21:30;;;;;;;5.05;3.95;;;;;;;20.63;100.00;100954.91;4845051;29;20030;-78
2021/06/19 04:24:16;;;;;;;4.38;3.85;;;;;;;20.40;100.00;100958.81;4845248;29;20069;-78
2021/06/19 04:27:03;;;;;;;6.30;4.25;;;;;;;20.73;100.00;100950.81;4845110;29;20499;-78
2021/06/19 04:29:49;;;;;;;4.50;4.10;;;;;;;20.69;100.00;100952.75;4844375;29;20448;-78
2021/06/19 04:32:35;;;;;;;4.45;4.05;;;;;;;20.77;100.00;100939.88;4844851;29;20435;-78
2021/06/19 04:35:23;;;;;;;6.50;3.88;;;;;;;20.66;100.00;100952.94;4845202;29;20045;-78
2021/06/19 04:38:08;;;;;;;4.25;3.85;;;;;;;20.99;100.00;100943.13;4844920;29;20030;-78
2021/06/19 04:46:46;;;;;;;5.80;4.22;;;;;;;21.05;100.00;100942.75;4838223;29;20066;-77
2021/06/19 04:49:32;;;;;;;4.43;4.03;;;;;;;21.15;100.00;100941.28;4845032;29;20093;-77
2021/06/19 04:52:18;;;;;;;3.95;3.65;;;;;;;21.15;100.00;100940.41;4843886;29;20105;-79
2021/06/19 04:55:04;;;;;;;7.28;4.40;;;;;;;20.93;100.00;100938.13;4845138;29;20037;-78
2021/06/19 04:57:54;;;;;;;4.60;3.85;;;;;;;21.47;100.00;100937.63;4845383;29;20034;-78
2021/06/19 05:00:40;;;;;;;6.15;3.78;;;;;;;21.42;100.00;100937.00;4844633;29;20030;-78
2021/06/19 05:03:26;;;;;;;3.40;3.10;;;;;;;21.50;100.00;100926.75;4843702;29;20114;-78
2021/06/19 05:06:12;;;;;;;4.20;3.50;;;;;;;21.50;100.00;100929.41;4844685;29;20408;-78
2021/06/19 05:08:57;;;;;;;3.30;3.00;;;;;;;21.35;100.00;100926.81;4843612;29;20056;-78
2021/06/19 05:11:43;;;;;;;3.42;2.80;;;;;;;21.52;100.00;100927.53;4844589;29;20086;-78
2021/06/19 05:14:29;;;;;;;4.28;2.80;;;;;;;21.63;100.00;100927.78;4844496;29;20375;-78
2021/06/19 05:17:15;;;;;;;3.60;3.30;;;;;;;21.77;100.00;100922.50;4844331;29;20061;-78
2021/06/19 05:20:00;;;;;;;4.18;3.78;;;;;;;21.91;100.00;100925.16;4844543;29;20497;-79
2021/06/19 05:22:47;;;;;;;5.90;3.25;;;;;;;21.40;100.00;100925.59;4844430;29;20034;-77
2021/06/19 05:25:33;;;;;;;4.53;3.55;;;;;;;21.36;100.00;100931.19;4844309;29;20037;-78
2021/06/19 05:28:19;;;;;;;3.03;2.72;;;;;;;20.94;100.00;100928.34;4843963;29;20129;-79
2021/06/19 05:31:06;;;;;;;3.30;2.97;;;;;;;21.67;100.00;100928.44;4844496;29;20048;-78
2021/06/19 05:33:51;;;;;;;3.47;3.15;;;;;;;21.52;100.00;100932.00;4843823;29;20388;-77
2021/06/19 05:36:37;;;;;;;3.58;3.28;;;;;;;22.00;100.00;100923.75;4844055;29;20112;-77
2021/06/19 05:39:23;;;;;;;4.88;3.53;;;;;;;22.33;100.00;100922.53;4843876;29;20034;-76
2021/06/19 05:42:09;;;;;;;3.83;3.30;;;;;;;21.71;100.00;100930.00;4843793;29;20034;-78
2021/06/19 05:44:55;;;;;;;3.60;3.30;;;;;;;21.98;100.00;100923.84;4843323;29;20050;-78
2021/06/19 05:47:41;;;;;;;4.45;3.85;;;;;;;21.97;100.00;100931.94;4844362;29;20033;-78
2021/06/19 05:50:27;;;;;;;4.88;3.15;;;;;;;20.95;100.00;100933.56;4844067;29;20045;-78
2021/06/19 05:53:12;;;;;;;5.47;4.00;;;;;;;21.10;100.00;100937.16;4843891;29;20025;-78
2021/06/19 05:55:58;;;;;;;6.22;3.65;;;;;;;21.05;100.00;100934.75;4844215;29;20034;-77
2021/06/19 05:58:44;;;;;;;5.10;3.53;;;;;;;21.32;100.00;100940.31;4843994;29;20037;-78
2021/06/19 06:01:30;;;;;;;4.82;3.30;;;;;;;21.41;100.00;100942.44;4843875;29;20040;-78
2021/06/19 06:04:16;;;;;;;5.80;3.40;;;;;;;21.75;100.00;100950.22;4843425;29;20030;-78
2021/06/19 06:07:03;;;;;;;3.40;2.92;;;;;;;21.79;100.00;100941.91;4844132;29;20042;-77
2021/06/19 06:09:49;;;;;;;4.32;3.28;;;;;;;22.44;100.00;100941.44;4843322;29;20464;-78
2021/06/19 06:12:34;;;;;;;3.38;2.60;;;;;;;22.98;100.00;100934.38;4843453;29;20030;-78
2021/06/19 06:15:20;;;;;;;2.90;2.70;;;;;;;23.61;100.00;100942.66;4843283;29;20030;-78
2021/06/19 06:18:06;;;;;;;2.40;2.20;;;;;;;22.52;100.00;100932.97;4843565;29;20029;-79
2021/06/19 06:20:52;;;;;;;3.75;2.55;;;;;;;22.66;100.00;100931.13;4845410;29;20026;-78
2021/06/19 06:23:38;;;;;;;3.22;2.80;;;;;;;22.64;100.00;100927.72;4847602;29;20030;-78
2021/06/19 06:26:23;;;;;;;3.88;3.40;;;;;;;22.12;100.00;100939.91;4846964;29;20107;-77
2021/06/19 06:29:09;;;;;;;4.75;3.30;;;;;;;22.18;100.00;100938.66;4847273;29;20460;-78
2021/06/19 06:31:55;;;;;;;4.80;3.03;;;;;;;22.27;100.00;100944.25;4847466;29;20112;-78
2021/06/19 06:34:41;;;;;;;3.30;2.60;;;;;;;22.25;100.00;100937.31;4847393;29;20038;-77
2021/06/19 06:37:27;;;;;;;2.53;2.25;;;;;;;21.92;100.00;100942.03;4847173;29;20037;-77
2021/06/19 06:40:14;;;;;;;2.97;2.45;;;;;;;21.60;100.00;100949.28;4846866;29;20076;-77
2021/06/19 06:42:59;;;;;;;2.75;2.53;;;;;;;21.14;100.00;100942.22;4847181;29;20042;-76
2021/06/19 06:45:45;;;;;;;3.15;2.70;;;;;;;21.46;100.00;100953.72;4846665;29;20474;-77
2021/06/19 06:48:31;;;;;;;3.30;3.00;;;;;;;21.50;100.00;100955.25;4847059;29;20034;-77
2021/06/19 06:51:19;;;;;;;4.13;2.67;;;;;;;21.35;100.00;100943.66;4846282;29;20037;-76
2021/06/19 06:54:06;;;;;;;4.00;3.22;;;;;;;21.26;100.00;100946.84;4834861;29;20120;-78
2021/06/19 06:56:51;;;;;;;4.15;3.20;;;;;;;21.46;100.00;100951.03;4847279;29;20041;-76
2021/06/19 06:59:38;;;;;;;6.40;3.38;;;;;;;21.40;100.00;100943.38;4846980;29;20040;-78
2021/06/19 07:02:23;;;;;;;3.70;3.33;;;;;;;21.84;100.00;100937.19;4846840;29;20171;-78
2021/06/19 07:05:10;;;;;;;3.80;3.25;;;;;;;21.78;100.00;100934.88;4847131;29;20463;-76
2021/06/19 07:07:56;;;;;;;5.82;3.72;;;;;;;21.96;100.00;100939.13;4847320;29;20128;-76
2021/06/19 07:10:42;;;;;;;3.97;3.58;;;;;;;21.60;100.00;100935.06;4848206;29;20030;-76
2021/06/19 07:13:28;;;;;;;6.95;3.67;;;;;;;21.31;100.00;100931.47;4848027;29;20466;-76
2021/06/19 07:16:13;;;;;;;6.07;3.60;;;;;;;21.81;100.00;100932.03;4846698;29;20081;-77
2021/06/19 07:18:59;;;;;;;3.38;3.00;;;;;;;21.96;100.00;100927.56;4846670;29;20106;-77
2021/06/19 07:21:45;;;;;;;4.80;3.72;;;;;;;22.08;100.00;100921.47;4846252;29;20038;-77
2021/06/19 07:24:31;;;;;;;4.13;3.03;;;;;;;22.21;100.00;100923.31;4847641;29;20030;-76
2021/06/19 07:27:16;;;;;;;4.55;3.15;;;;;;;22.21;100.00;100904.63;4846844;29;20090;-76
2021/06/19 07:30:04;;;;;;;5.05;2.95;;;;;;;22.22;100.00;100903.66;4846931;29;20379;-76
2021/06/19 07:32:50;;;;;;;3.90;3.50;;;;;;;22.01;100.00;100904.13;4844503;29;20021;-77
2021/06/19 07:35:36;;;;;;;5.28;4.78;;;;;;;22.17;100.00;100895.09;4846347;29;20033;-77
2021/06/19 07:38:22;;;;;;;2.90;2.60;;;;;;;21.98;100.00;100891.00;4846256;29;20363;-77
2021/06/19 07:41:08;;;;;;;3.53;2.92;;;;;;;21.86;100.00;100900.59;4846161;29;20124;-77
2021/06/19 07:43:53;;;;;;;6.22;3.30;;;;;;;22.28;100.00;100895.28;4846028;29;20065;-76
2021/06/19 07:46:39;;;;;;;3.92;2.80;;;;;;;22.00;100.00;100894.41;4846280;29;20098;-77
2021/06/19 07:49:28;;;;;;;4.70;2.50;;;;;;;22.02;100.00;100900.53;4846273;29;20462;-76
2021/06/19 07:52:13;;;;;;;2.42;2.20;;;;;;;21.89;100.00;100897.75;4845802;29;20033;-76
2021/06/19 07:54:59;;;;;;;5.45;4.80;;;;;;;22.20;100.00;100894.03;4845937;29;20431;-77
2021/06/19 07:57:45;;;;;;;2.53;2.33;;;;;;;22.23;100.00;100894.69;4845616;29;20112;-77
2021/06/19 08:00:32;;;;;;;3.70;2.80;;;;;;;22.57;100.00;100880.97;4845892;29;20030;-77
2021/06/19 08:03:17;;;;;;;3.13;2.75;;;;;;;23.28;100.00;100882.47;4845727;29;20109;-77
2021/06/19 08:06:03;;;;;;;5.78;3.00;;;;;;;23.94;100.00;100881.53;4846324;29;20449;-77
2021/06/19 08:08:49;;;;;;;4.72;2.60;;;;;;;24.83;100.00;100860.69;4845637;29;20108;-77
2021/06/19 08:11:35;;;;;;;3.70;2.85;;;;;;;24.19;100.00;100854.75;4845904;29;20125;-77
2021/06/19 08:14:21;;;;;;;4.43;2.72;;;;;;;23.26;100.00;100864.81;4845260;29;20101;-76
2021/06/19 08:17:19;;;;;;;5.75;2.67;;;;;;;23.23;100.00;100876.56;4847257;29;20045;-75
2021/06/19 08:20:06;;;;;;;2.30;2.10;;;;;;;22.97;100.00;100872.09;4845288;29;20033;-76
2021/06/19 08:22:52;;;;;;;3.72;2.67;;;;;;;23.00;100.00;100871.88;4845146;29;20022;-76
2021/06/19 08:25:38;;;;;;;4.28;2.75;;;;;;;22.75;100.00;100877.09;4845224;29;20106;-77
2021/06/19 08:28:23;;;;;;;4.45;2.80;;;;;;;22.21;100.00;100872.59;4845128;29;20038;-77
2021/06/19 08:31:09;;;;;;;3.50;3.10;;;;;;;22.08;100.00;100876.97;4845201;29;20038;-77
2021/06/19 08:33:55;;;;;;;4.65;3.10;;;;;;;21.74;100.00;100890.66;4844230;29;20113;-76
2021/06/19 08:36:41;;;;;;;3.30;3.00;;;;;;;21.49;100.00;100898.38;4844592;29;20036;-76
2021/06/19 08:39:26;;;;;;;4.50;3.33;;;;;;;21.50;100.00;100901.91;4844608;29;20034;-77
2021/06/19 08:42:12;;;;;;;5.35;3.88;;;;;;;21.57;100.00;100913.91;4844721;29;20033;-77
2021/06/19 08:44:59;;;;;;;5.05;4.55;;;;;;;21.83;100.00;100902.59;4844546;29;20053;-76
2021/06/19 08:47:45;;;;;;;4.40;3.97;;;;;;;21.69;100.00;100907.84;4844130;29;20034;-77
2021/06/19 08:50:31;;;;;;;6.13;4.00;;;;;;;21.48;100.00;100914.47;4844789;29;20431;-76
2021/06/19 08:53:19;;;;;;;6.03;5.03;;;;;;;21.80;100.00;100919.66;4844870;29;20166;-76
2021/06/19 08:56:05;;;;;;;11.65;6.93;;;;;;;21.40;100.00;100917.59;4844632;29;20389;-76
2021/06/19 08:58:51;;;;;;;6.70;4.38;;;;;;;20.95;100.00;100917.59;4844680;29;20034;-76
2021/06/19 09:01:38;;;;;;;6.45;3.85;;;;;;;20.69;100.00;100922.63;4844455;29;20029;-76
2021/06/19 09:04:24;;;;;;;8.95;5.53;;;;;;;20.87;100.00;100921.59;4843870;29;20041;-76
2021/06/19 09:07:41;;;;;;;5.07;4.57;;;;;;;21.31;100.00;100912.81;4844557;29;20041;-75
2021/06/19 09:10:35;;;;;;;7.53;4.65;;;;;;;22.17;100.00;100911.09;4844191;29;20030;-76
2021/06/19 09:13:22;;;;;;;4.88;3.67;;;;;;;22.52;100.00;100893.78;4844792;29;20033;-75
2021/06/19 09:16:21;;;;;;;7.28;3.60;;;;;;;22.61;100.00;100877.16;4843980;29;20030;-76
2021/06/19 09:19:30;;;;;;;8.50;4.65;;;;;;;23.13;100.00;100890.63;4844699;29;20033;-76
2021/06/19 09:22:21;;;;;;;5.10;3.30;;;;;;;22.14;100.00;100878.41;4843781;29;20057;-76
2021/06/19 09:25:13;;;;;;;4.82;3.75;;;;;;;22.51;100.00;100876.00;4843133;29;20033;-76
2021/06/19 09:27:59;;;;;;;3.78;3.30;;;;;;;22.89;100.00;100869.06;4843710;29;20073;-76
2021/06/19 09:30:45;;;;;;;5.25;3.47;;;;;;;22.48;100.00;100865.53;4844553;29;20036;-75
2021/06/19 09:33:30;;;;;;;4.78;4.28;;;;;;;22.55;100.00;100860.66;4843842;29;20033;-75
2021/06/19 09:36:35;;;;;;;7.53;4.80;;;;;;;22.17;100.00;100870.19;4844670;29;20022;-76
2021/06/19 09:39:29;;;;;;;7.97;5.18;;;;;;;21.69;100.00;100890.06;4843855;29;20047;-76
2021/06/19 09:42:15;;;;;;;11.40;5.20;;;;;;;21.14;100.00;100898.75;4843900;29;20021;-76
2021/06/19 09:45:01;;;;;;;5.88;3.90;;;;;;;21.00;100.00;100898.66;4842191;29;20066;-76
2021/06/19 09:47:47;;;;;;;4.50;4.10;;;;;;;20.88;100.00;100902.00;4844657;29;20042;-77
2021/06/19 09:50:33;;;;;;;6.80;4.70;;;;;;;21.38;100.00;100899.97;4844436;29;20154;-77
2021/06/19 09:53:18;;;;;;;5.10;4.60;;;;;;;21.92;100.00;100888.69;4843922;29;20452;-77
2021/06/19 09:56:06;;;;;;;5.47;4.38;;;;;;;22.29;100.00;100882.78;4843193;29;20046;-77
2021/06/19 09:58:55;;;;;;;4.45;4.05;;;;;;;23.18;100.00;100869.78;4843016;29;20033;-77
2021/06/19 10:01:42;;;;;;;6.28;4.28;;;;;;;23.52;100.00;100857.69;4844183;29;20037;-77
2021/06/19 10:04:30;;;;;;;3.50;3.20;;;;;;;23.18;100.00;100853.75;4843554;29;20030;-77
2021/06/19 10:07:16;;;;;;;2.90;2.70;;;;;;;22.62;100.00;100843.25;4843766;29;20038;-77
2021/06/19 10:10:05;;;;;;;3.35;3.00;;;;;;;22.98;100.00;100846.19;4843340;29;20034;-77
2021/06/19 10:12:51;;;;;;;4.07;2.92;;;;;;;23.42;100.00;100852.13;4843003;29;20034;-77
2021/06/19 10:15:37;;;;;;;4.28;2.88;;;;;;;23.26;100.00;100844.28;4843100;29;20066;-77
2021/06/19 10:18:23;;;;;;;3.75;2.70;;;;;;;23.42;100.00;100842.28;4843713;29;20040;-77
2021/06/19 10:21:10;;;;;;;3.42;3.10;;;;;;;24.19;100.00;100834.16;4843225;29;20034;-77
2021/06/19 10:23:57;;;;;;;5.47;3.13;;;;;;;24.25;100.00;100832.88;4843568;29;20034;-75
2021/06/19 10:26:43;;;;;;;4.28;2.78;;;;;;;23.97;100.00;100836.66;4843432;29;20034;-76
2021/06/19 10:29:30;;;;;;;2.78;2.50;;;;;;;23.05;100.00;100831.47;4843932;29;20508;-75
2021/06/19 10:32:37;;;;;;;3.25;2.95;;;;;;;22.42;100.00;100844.53;4843677;29;20038;-76
2021/06/19 10:35:50;;;;;;;3.38;3.08;;;;;;;22.65;100.00;100838.59;4843880;29;20026;-77
2021/06/19 10:38:49;;;;;;;4.90;3.78;;;;;;;23.63;100.00;100834.63;4843470;29;20128;-76
2021/06/19 10:41:51;;;;;;;4.57;3.70;;;;;;;24.17;100.00;100819.16;4843519;29;20030;-77
2021/06/19 10:44:55;;;;;;;4.28;3.40;;;;;;;24.15;100.00;100813.94;4843121;29;20053;-76
2021/06/19 10:48:12;;;;;;;3.47;3.17;;;;;;;23.71;100.00;100818.03;4843297;29;20033;-76
2021/06/19 10:51:18;;;;;;;3.85;3.30;;;;;;;23.18;100.00;100810.97;4840205;29;20049;-76
2021/06/19 10:54:13;;;;;;;3.95;3.05;;;;;;;23.95;100.00;100803.78;4843261;29;20037;-76
2021/06/19 10:56:59;;;;;;;3.13;2.83;;;;;;;24.54;100.00;100803.00;4843241;29;20038;-76
2021/06/19 10:59:45;;;;;;;3.22;2.92;;;;;;;24.57;100.00;100810.81;4843181;29;20102;-76
2021/06/19 11:03:04;;;;;;;3.17;2.88;;;;;;;24.90;100.00;100810.16;4843838;29;20033;-77
2021/06/19 11:05:52;;;;;;;5.18;2.60;;;;;;;24.67;100.00;100798.47;4820670;29;20038;-76
2021/06/19 11:09:07;;;;;;;4.35;2.50;;;;;;;24.25;100.00;100801.59;4845709;29;20034;-77
2021/06/19 11:12:04;;;;;;;3.88;3.03;;;;;;;23.81;100.00;100795.00;4847089;29;20063;-77
2021/06/19 11:14:52;;;;;;;3.22;2.70;;;;;;;23.13;100.00;100797.06;4847244;29;20034;-77
2021/06/19 11:17:43;;;;;;;5.40;3.28;;;;;;;23.31;100.00;100798.53;4846399;29;20073;-77
2021/06/19 11:20:30;;;;;;;3.30;3.00;;;;;;;23.42;100.00;100792.44;4846026;29;20042;-77
2021/06/19 11:23:16;;;;;;;3.78;3.40;;;;;;;23.36;100.00;100796.38;4846118;29;20451;-77
2021/06/19 11:26:06;;;;;;;4.20;3.80;;;;;;;23.59;100.00;100790.31;4846232;29;20026;-77
2021/06/19 11:28:52;;;;;;;4.35;3.40;;;;;;;22.76;100.00;100796.00;4846809;29;20059;-77
2021/06/19 11:31:40;;;;;;;4.25;3.85;;;;;;;22.76;100.00;100797.81;4846408;29;20072;-77
2021/06/19 11:34:40;;;;;;;4.60;4.20;;;;;;;23.86;100.00;100787.50;4846044;29;20037;-77
2021/06/19 11:37:59;;;;;;;4.05;3.65;;;;;;;24.51;100.00;100776.44;4846630;29;20041;-77
2021/06/19 11:40:46;;;;;;;6.28;3.92;;;;;;;24.06;100.00;100768.25;4845848;29;20057;-77
2021/06/19 11:43:32;;;;;;;4.88;4.05;;;;;;;23.82;100.00;100756.59;4845766;29;20112;-77
2021/06/19 11:46:20;;;;;;;3.85;3.55;;;;;;;23.54;100.00;100760.34;4844906;29;20089;-77
2021/06/19 11:49:09;;;;;;;4.82;4.00;;;;;;;24.16;100.00;100756.75;4846280;29;20094;-77
2021/06/19 11:51:55;;;;;;;4.32;3.25;;;;;;;24.88;100.00;100758.50;4846153;29;20029;-77
2021/06/19 11:54:43;;;;;;;4.65;3.30;;;;;;;24.90;100.00;100757.41;4846083;29;20042;-77
2021/06/19 11:57:30;;;;;;;4.32;3.55;;;;;;;24.72;100.00;100755.25;4845689;29;20034;-77
2021/06/19 12:00:20;;;;;;;5.65;3.42;;;;;;;25.07;100.00;100748.09;4846456;29;20038;-77
2021/06/19 12:03:05;;;;;;;3.08;2.85;;;;;;;25.55;100.00;100752.38;4845470;29;20120;-77
2021/06/19 12:05:51;;;;;;;3.70;3.00;;;;;;;26.16;100.00;100741.16;4845825;29;20090;-77
2021/06/19 12:08:39;;;;;;;3.65;2.47;;;;;;;25.82;100.00;100736.75;4844801;29;20112;-77
2021/06/19 12:11:30;;;;;;;3.90;2.60;;;;;;;26.09;100.00;100729.19;4845761;29;20034;-77
2021/06/19 12:14:18;;;;;;;2.10;1.90;;;;;;;25.90;100.00;100724.41;4844856;29;20034;-77
2021/06/19 12:17:10;;;;;;;4.28;2.00;;;;;;;25.72;100.00;100711.63;4845409;29;20026;-77
2021/06/19 12:19:55;;;;;;;4.50;2.88;;;;;;;25.34;100.00;100713.78;4845098;29;20058;-77
2021/06/19 12:22:41;;;;;;;2.35;2.13;;;;;;;25.40;100.00;100707.94;4845128;29;20025;-76
2021/06/19 12:25:35;;;;;;;2.95;2.20;;;;;;;26.58;100.00;100719.69;4844709;29;20026;-77
2021/06/19 12:28:23;;;;;;;2.33;1.90;;;;;;;25.28;100.00;100736.56;4844650;29;20044;-77
2021/06/19 12:31:08;;;;;;;9.55;2.30;;;;;;;21.67;100.00;100769.28;4855336;29;20063;-80
2021/06/19 12:34:00;;;;;;;8.77;2.50;;;;;;;20.62;100.00;100783.63;4863455;29;20058;-81
2021/06/19 12:36:46;;;;;;;5.82;2.80;;;;;;;20.72;100.00;100797.28;4859077;29;20036;-81
2021/06/19 12:39:32;;;;;;;7.38;3.25;;;;;;;20.70;100.00;100788.53;4854544;29;20034;-84
2021/06/19 12:42:38;;;;;;;3.33;2.95;;;;;;;20.79;100.00;100804.84;4860237;29;20459;-82
2021/06/19 12:45:31;;;;;;;15.05;12.68;;;;;;;20.91;100.00;100801.50;4856736;29;20046;-82
2021/06/19 12:48:27;;;;;;;5.63;4.45;;;;;;;21.34;100.00;100810.47;4857662;29;20040;-81
2021/06/19 12:51:29;;;;;;;3.75;3.42;;;;;;;21.74;100.00;100794.63;4861120;29;20044;-81
2021/06/19 12:54:24;;;;;;;3.15;2.30;;;;;;;21.31;100.00;100784.88;4863610;29;20014;-81